createdAt,value
2019-05-19T00:01:02.994Z,3.90
2019-05-19T00:03:35.753Z,3.50
2019-05-19T00:06:04.864Z,4.97
2019-05-19T00:08:33.879Z,3.63
2019-05-19T00:11:06.007Z,4.03
2019-05-19T00:13:35.163Z,4.80
2019-05-19T00:16:04.243Z,7.67
2019-05-19T00:18:33.077Z,3.90
2019-05-19T00:21:04.716Z,4.83
2019-05-19T00:23:33.762Z,4.20
2019-05-19T00:26:05.452Z,3.53
2019-05-19T00:28:34.357Z,3.67
2019-05-19T00:31:03.326Z,4.93
2019-05-19T00:33:32.130Z,4.83
2019-05-19T00:36:04.272Z,4.70
2019-05-19T00:38:35.754Z,6.63
2019-05-19T00:41:04.528Z,3.67
2019-05-19T00:43:33.658Z,5.50
2019-05-19T00:46:02.496Z,4.50
2019-05-19T00:48:31.474Z,6.73
2019-05-19T00:51:00.483Z,4.20
2019-05-19T00:53:29.265Z,3.90
2019-05-19T00:55:58.318Z,4.43
2019-05-19T00:58:28.328Z,4.67
2019-05-19T01:00:57.103Z,5.13
2019-05-19T01:03:25.863Z,4.80
2019-05-19T01:05:54.861Z,5.20
2019-05-19T01:08:23.703Z,4.30
2019-05-19T01:10:52.512Z,4.77
2019-05-19T01:13:21.521Z,3.60
2019-05-19T01:15:50.288Z,3.60
2019-05-19T01:18:19.078Z,6.90
2019-05-19T01:20:47.912Z,6.30
2019-05-19T01:23:16.687Z,4.33
2019-05-19T01:25:45.649Z,5.47
2019-05-19T01:28:14.533Z,7.17
2019-05-19T01:30:43.602Z,3.83
2019-05-19T01:33:12.436Z,4.60
2019-05-19T01:35:41.818Z,5.77
2019-05-19T01:38:10.557Z,4.20
2019-05-19T01:40:39.394Z,4.50
2019-05-19T01:43:08.335Z,4.17
2019-05-19T01:45:38.062Z,4.20
2019-05-19T01:48:06.826Z,4.17
2019-05-19T01:50:35.699Z,4.67
2019-05-19T01:53:04.539Z,4.90
2019-05-19T01:55:33.728Z,5.37
2019-05-19T01:58:02.688Z,5.33
2019-05-19T02:00:31.789Z,4.73
2019-05-19T02:03:00.845Z,5.40
2019-05-19T02:05:29.770Z,4.33
2019-05-19T02:07:58.598Z,4.00
2019-05-19T02:10:27.704Z,5.07
2019-05-19T02:12:56.677Z,6.20
2019-05-19T02:15:28.398Z,4.97
2019-05-19T02:17:57.334Z,6.17
2019-05-19T02:20:33.456Z,4.67
2019-05-19T02:22:56.778Z,5.27
2019-05-19T02:25:25.916Z,5.10
2019-05-19T02:27:54.737Z,4.47
2019-05-19T02:30:23.837Z,4.53
2019-05-19T02:32:52.757Z,4.90
2019-05-19T02:35:21.684Z,5.27
2019-05-19T02:37:50.487Z,4.67
2019-05-19T02:40:20.577Z,6.33
2019-05-19T02:42:51.179Z,6.37
2019-05-19T02:45:20.065Z,5.30
2019-05-19T02:47:50.598Z,5.80
2019-05-19T02:50:19.924Z,6.13
2019-05-19T02:52:50.451Z,5.07
2019-05-19T02:55:20.598Z,6.33
2019-05-19T02:57:50.819Z,5.67
2019-05-19T03:00:22.674Z,5.50
2019-05-19T03:02:51.466Z,5.17
2019-05-19T03:05:20.284Z,7.07
2019-05-19T03:07:50.696Z,5.63
2019-05-19T03:10:19.535Z,6.30
2019-05-19T03:12:48.291Z,5.53
2019-05-19T03:15:17.287Z,5.70
2019-05-19T03:17:47.696Z,7.60
2019-05-19T03:20:16.468Z,5.20
2019-05-19T03:22:45.487Z,6.07
2019-05-19T03:25:14.299Z,5.40
2019-05-19T03:27:43.124Z,7.57
2019-05-19T03:30:30.621Z,6.13
2019-05-19T03:33:03.697Z,7.07
2019-05-19T03:35:35.756Z,6.43
2019-05-19T03:38:04.606Z,5.37
2019-05-19T03:40:35.095Z,5.93
2019-05-19T03:43:04.102Z,5.47
2019-05-19T03:45:32.862Z,6.50
2019-05-19T03:48:03.268Z,6.00
2019-05-19T03:50:32.067Z,5.67
2019-05-19T03:53:01.193Z,5.97
2019-05-19T03:55:30.748Z,6.70
2019-05-19T03:57:59.716Z,5.47
2019-05-19T04:00:28.867Z,6.33
2019-05-19T04:02:57.701Z,6.30
2019-05-19T04:05:26.827Z,6.17
2019-05-19T04:07:55.637Z,7.63
2019-05-19T04:10:24.497Z,6.93
2019-05-19T04:12:53.439Z,7.87
2019-05-19T04:15:22.177Z,12.43
2019-05-19T04:17:50.967Z,9.90
2019-05-19T04:20:19.963Z,13.47
2019-05-19T04:22:48.695Z,7.80
2019-05-19T04:25:17.670Z,11.87
2019-05-19T04:27:46.814Z,11.13
2019-05-19T04:30:15.597Z,11.57
2019-05-19T04:32:44.456Z,13.83
2019-05-19T04:35:13.404Z,13.50
2019-05-19T04:37:42.311Z,11.70
2019-05-19T04:40:11.291Z,11.43
2019-05-19T04:42:40.185Z,13.20
2019-05-19T04:45:10.435Z,13.83
2019-05-19T04:47:39.142Z,13.40
2019-05-19T04:50:08.335Z,12.63
2019-05-19T04:52:37.196Z,10.70
2019-05-19T04:55:06.634Z,13.87
2019-05-19T04:57:36.539Z,12.63
2019-05-19T05:00:09.035Z,8.70
2019-05-19T05:02:39.900Z,10.63
2019-05-19T05:05:08.746Z,10.60
2019-05-19T05:07:37.553Z,10.53
2019-05-19T05:10:07.183Z,11.13
2019-05-19T05:12:36.032Z,12.67
2019-05-19T05:15:06.547Z,9.40
2019-05-19T05:17:35.539Z,9.40
2019-05-19T05:20:25.092Z,12.80
2019-05-19T05:22:53.937Z,10.50
2019-05-19T05:25:22.688Z,13.23
2019-05-19T05:27:51.483Z,10.63
2019-05-19T05:30:20.593Z,10.93
2019-05-19T05:32:49.429Z,9.20
2019-05-19T05:35:18.528Z,11.10
2019-05-19T05:37:47.531Z,10.17
2019-05-19T05:40:16.857Z,10.37
2019-05-19T05:42:45.801Z,10.30
2019-05-19T05:45:15.364Z,8.03
2019-05-19T05:47:44.427Z,8.53
2019-05-19T05:50:13.445Z,10.27
2019-05-19T05:52:42.546Z,9.67
2019-05-19T05:55:11.564Z,9.83
2019-05-19T05:57:40.409Z,11.23
2019-05-19T06:00:09.836Z,8.40
2019-05-19T06:02:38.694Z,12.00
2019-05-19T06:05:08.115Z,9.47
2019-05-19T06:07:37.001Z,7.40
2019-05-19T06:10:08.184Z,9.67
2019-05-19T06:12:37.222Z,9.67
2019-05-19T06:15:06.459Z,8.73
2019-05-19T06:17:35.185Z,10.90
2019-05-19T06:20:05.777Z,8.77
2019-05-19T06:22:34.868Z,8.60
2019-05-19T06:25:03.873Z,7.00
2019-05-19T06:27:35.067Z,7.50
2019-05-19T06:30:08.487Z,6.40
2019-05-19T06:32:40.469Z,7.40
2019-05-19T06:35:09.593Z,6.87
2019-05-19T06:37:38.403Z,8.43
2019-05-19T06:40:09.451Z,8.73
2019-05-19T06:42:38.479Z,6.40
2019-05-19T06:45:07.702Z,7.87
2019-05-19T06:47:36.657Z,5.40
2019-05-19T06:50:10.789Z,6.47
2019-05-19T06:52:39.658Z,5.67
2019-05-19T06:55:08.931Z,6.07
2019-05-19T06:57:37.877Z,6.60
2019-05-19T07:00:07.326Z,7.13
2019-05-19T07:02:36.104Z,6.40
2019-05-19T07:05:07.433Z,5.83
2019-05-19T07:07:36.184Z,6.17
2019-05-19T07:10:09.178Z,6.37
2019-05-19T07:12:38.003Z,8.73
2019-05-19T07:15:08.146Z,5.57
2019-05-19T07:17:37.019Z,5.50
2019-05-19T07:20:06.287Z,5.80
2019-05-19T07:22:37.578Z,5.30
2019-05-19T07:25:07.446Z,6.10
2019-05-19T07:27:36.250Z,6.00
2019-05-19T07:30:06.584Z,5.77
2019-05-19T07:32:35.589Z,6.13
2019-05-19T07:35:07.833Z,6.03
2019-05-19T07:37:36.719Z,5.97
2019-05-19T07:40:06.429Z,6.77
2019-05-19T07:42:35.315Z,8.33
2019-05-19T07:45:05.014Z,6.97
2019-05-19T07:47:33.768Z,5.80
2019-05-19T07:50:02.745Z,6.27
2019-05-19T07:52:31.851Z,5.20
2019-05-19T07:55:03.022Z,6.10
2019-05-19T07:57:31.853Z,6.10
2019-05-19T08:00:01.338Z,5.30
2019-05-19T08:02:30.416Z,5.90
2019-05-19T08:04:59.173Z,5.73
2019-05-19T08:07:28.479Z,5.00
2019-05-19T08:09:57.312Z,5.67
2019-05-19T08:12:26.617Z,6.07
2019-05-19T08:14:55.753Z,7.80
2019-05-19T08:17:25.951Z,5.23
2019-05-19T08:19:54.919Z,5.93
2019-05-19T08:22:23.952Z,5.97
2019-05-19T08:24:52.657Z,6.00
2019-05-19T08:27:21.492Z,5.70
2019-05-19T08:29:50.352Z,4.93
2019-05-19T08:32:19.174Z,5.83
2019-05-19T08:34:48.558Z,5.90
2019-05-19T08:37:17.539Z,5.87
2019-05-19T08:40:06.062Z,5.27
2019-05-19T08:42:34.935Z,5.60
2019-05-19T08:45:05.481Z,5.67
2019-05-19T08:47:34.554Z,6.37
2019-05-19T08:50:04.610Z,5.47
2019-05-19T08:52:33.425Z,5.87
2019-05-19T08:55:02.362Z,5.30
2019-05-19T08:57:31.500Z,6.40
2019-05-19T09:00:00.468Z,6.00
2019-05-19T09:02:29.210Z,5.73
2019-05-19T09:04:58.129Z,6.13
2019-05-19T09:07:26.921Z,6.00
2019-05-19T09:09:55.683Z,7.60
2019-05-19T09:12:26.699Z,5.43
2019-05-19T09:14:55.524Z,7.03
2019-05-19T09:17:24.352Z,7.47
2019-05-19T09:19:53.225Z,6.13
2019-05-19T09:22:21.967Z,6.93
2019-05-19T09:24:50.819Z,6.77
2019-05-19T09:27:19.842Z,6.67
2019-05-19T09:29:48.683Z,7.73
2019-05-19T09:32:17.663Z,6.57
2019-05-19T09:34:46.619Z,6.63
2019-05-19T09:37:15.482Z,6.43
2019-05-19T09:39:44.304Z,6.17
2019-05-19T09:42:13.413Z,7.90
2019-05-19T09:44:42.177Z,6.43
2019-05-19T09:47:11.228Z,8.73
2019-05-19T09:49:40.302Z,7.70
2019-05-19T09:52:09.141Z,7.00
2019-05-19T09:54:45.261Z,7.03
2019-05-19T09:57:08.469Z,7.60
2019-05-19T09:59:37.368Z,6.50
2019-05-19T10:02:06.251Z,7.83
2019-05-19T10:04:35.347Z,5.93
2019-05-19T10:07:05.035Z,6.33
2019-05-19T10:09:48.209Z,6.57
2019-05-19T10:12:16.918Z,8.00
2019-05-19T10:14:45.666Z,7.23
2019-05-19T10:17:14.624Z,6.30
2019-05-19T10:19:43.534Z,6.90
2019-05-19T10:22:12.430Z,6.50
2019-05-19T10:24:56.350Z,6.03
2019-05-19T10:27:11.760Z,5.77
2019-05-19T10:29:40.495Z,6.27
2019-05-19T10:32:09.418Z,6.40
2019-05-19T10:34:38.373Z,6.80
2019-05-19T10:37:07.302Z,6.37
2019-05-19T10:39:36.324Z,7.10
2019-05-19T10:42:06.167Z,6.80
2019-05-19T10:44:34.970Z,6.20
2019-05-19T10:47:03.872Z,6.53
2019-05-19T10:49:32.698Z,6.27
2019-05-19T10:52:01.614Z,7.37
2019-05-19T10:54:30.825Z,6.77
2019-05-19T10:56:59.691Z,6.87
2019-05-19T10:59:28.563Z,6.70
2019-05-19T11:01:57.576Z,6.93
2019-05-19T11:04:26.309Z,5.93
2019-05-19T11:06:55.107Z,6.37
2019-05-19T11:09:24.129Z,7.50
2019-05-19T11:11:52.859Z,8.33
2019-05-19T11:14:21.631Z,7.33
2019-05-19T11:16:50.511Z,6.47
2019-05-19T11:19:19.276Z,6.60
2019-05-19T11:21:48.143Z,6.70
2019-05-19T11:24:17.002Z,6.73
2019-05-19T11:26:46.250Z,7.13
2019-05-19T11:29:15.056Z,6.13
2019-05-19T11:31:44.012Z,6.30
2019-05-19T11:34:12.824Z,6.57
2019-05-19T11:36:41.569Z,6.03
2019-05-19T11:39:10.527Z,6.50
2019-05-19T11:41:39.495Z,6.13
2019-05-19T11:44:08.263Z,6.27
2019-05-19T11:46:37.183Z,7.00
2019-05-19T11:49:06.093Z,5.73
2019-05-19T11:51:34.884Z,7.67
2019-05-19T11:54:03.774Z,7.37
2019-05-19T11:56:32.609Z,7.50
2019-05-19T11:59:01.610Z,6.97
2019-05-19T12:01:30.822Z,7.77
2019-05-19T12:03:59.647Z,7.53
2019-05-19T12:06:38.880Z,8.00
2019-05-19T12:08:58.979Z,6.37
2019-05-19T12:11:28.275Z,6.87
2019-05-19T12:13:57.044Z,6.80
2019-05-19T12:16:25.959Z,6.70
2019-05-19T12:18:57.398Z,7.60
2019-05-19T12:21:27.090Z,6.53
2019-05-19T12:23:55.860Z,6.40
2019-05-19T12:26:24.723Z,6.63
2019-05-19T12:28:53.824Z,6.73
2019-05-19T12:31:22.664Z,7.00
2019-05-19T12:33:52.473Z,6.83
2019-05-19T12:36:21.475Z,6.07
2019-05-19T12:38:50.684Z,6.87
2019-05-19T12:41:19.549Z,7.83
2019-05-19T12:43:48.812Z,7.30
2019-05-19T12:46:17.607Z,5.97
2019-05-19T12:48:46.506Z,7.07
2019-05-19T12:51:15.604Z,6.50
2019-05-19T12:53:44.427Z,6.53
2019-05-19T12:56:13.222Z,6.97
2019-05-19T12:58:42.274Z,7.10
2019-05-19T13:01:11.119Z,6.80
2019-05-19T13:03:39.904Z,7.07
2019-05-19T13:06:08.955Z,6.77
2019-05-19T13:08:37.777Z,6.80
2019-05-19T13:11:06.890Z,7.30
2019-05-19T13:13:35.874Z,7.70
2019-05-19T13:16:04.714Z,7.00
2019-05-19T13:18:33.501Z,7.33
2019-05-19T13:21:02.572Z,7.47
2019-05-19T13:23:31.547Z,8.57
2019-05-19T13:26:00.395Z,10.70
2019-05-19T13:28:29.574Z,7.63
2019-05-19T13:30:58.426Z,8.80
2019-05-19T13:33:27.632Z,6.63
2019-05-19T13:35:56.551Z,7.60
2019-05-19T13:38:25.276Z,7.17
2019-05-19T13:40:54.084Z,6.97
2019-05-19T13:43:26.457Z,7.80
2019-05-19T13:45:53.880Z,8.13
2019-05-19T13:48:22.638Z,7.80
2019-05-19T13:50:51.948Z,7.20
2019-05-19T13:53:20.765Z,8.17
2019-05-19T13:55:49.896Z,8.13
2019-05-19T13:58:18.729Z,8.23
2019-05-19T14:00:47.789Z,7.33
2019-05-19T14:03:16.674Z,7.13
2019-05-19T14:05:45.701Z,7.50
2019-05-19T14:08:14.453Z,7.43
2019-05-19T14:10:43.268Z,6.87
2019-05-19T14:13:12.378Z,9.63
2019-05-19T14:15:42.195Z,7.73
2019-05-19T14:18:11.039Z,7.17
2019-05-19T14:20:40.066Z,7.10
2019-05-19T14:23:09.183Z,7.00
2019-05-19T14:25:37.955Z,8.67
2019-05-19T14:28:07.100Z,7.33
2019-05-19T14:30:36.026Z,7.43
2019-05-19T14:33:04.822Z,6.43
2019-05-19T14:35:34.230Z,7.20
2019-05-19T14:38:03.397Z,6.47
2019-05-19T14:40:32.939Z,7.03
2019-05-19T14:43:02.787Z,6.43
2019-05-19T14:45:31.738Z,6.43
2019-05-19T14:48:01.003Z,5.90
2019-05-19T14:50:30.032Z,6.40
2019-05-19T14:52:58.827Z,6.83
2019-05-19T14:55:27.558Z,6.27
2019-05-19T14:57:56.572Z,6.00
2019-05-19T15:00:25.362Z,5.87
2019-05-19T15:02:54.127Z,8.47
2019-05-19T15:05:23.083Z,7.03
2019-05-19T15:07:52.240Z,6.40
2019-05-19T15:10:21.112Z,6.20
2019-05-19T15:12:50.235Z,5.87
2019-05-19T15:15:19.585Z,6.67
2019-05-19T15:17:48.958Z,5.53
2019-05-19T15:20:17.953Z,5.77
2019-05-19T15:22:46.855Z,6.10
2019-05-19T15:25:16.174Z,6.57
2019-05-19T15:27:57.853Z,5.77
2019-05-19T15:30:16.806Z,5.80
2019-05-19T15:32:45.669Z,6.20
2019-05-19T15:35:14.658Z,6.63
2019-05-19T15:37:43.446Z,5.87
2019-05-19T15:40:12.572Z,6.70
2019-05-19T15:42:41.548Z,5.97
2019-05-19T15:45:10.957Z,5.80
2019-05-19T15:47:39.756Z,6.37
2019-05-19T15:50:09.140Z,5.73
2019-05-19T15:52:37.930Z,6.00
2019-05-19T15:55:06.675Z,6.00
2019-05-19T15:57:35.856Z,5.90
2019-05-19T16:00:06.735Z,6.97
2019-05-19T16:02:35.557Z,5.83
2019-05-19T16:05:08.594Z,5.60
2019-05-19T16:07:37.404Z,5.33
2019-05-19T16:10:08.019Z,5.80
2019-05-19T16:12:36.977Z,5.90
2019-05-19T16:15:07.757Z,5.83
2019-05-19T16:17:36.512Z,7.00
2019-05-19T16:20:08.505Z,6.03
2019-05-19T16:22:37.247Z,6.10
2019-05-19T16:25:07.608Z,6.23
2019-05-19T16:27:36.500Z,6.10
2019-05-19T16:30:10.546Z,5.80
2019-05-19T16:32:39.708Z,5.73
2019-05-19T16:35:09.003Z,5.67
2019-05-19T16:37:37.807Z,5.47
2019-05-19T16:40:07.509Z,5.60
2019-05-19T16:42:36.286Z,6.03
2019-05-19T16:45:07.805Z,5.70
2019-05-19T16:47:36.775Z,5.77
2019-05-19T16:50:07.149Z,5.77
2019-05-19T16:52:36.014Z,5.70
2019-05-19T16:55:25.994Z,5.60
2019-05-19T16:57:55.772Z,6.13
2019-05-19T17:00:25.384Z,6.90
2019-05-19T17:02:54.513Z,6.43
2019-05-19T17:05:23.467Z,5.83
2019-05-19T17:07:52.440Z,6.10
2019-05-19T17:10:21.640Z,5.57
2019-05-19T17:12:50.429Z,5.57
2019-05-19T17:15:19.950Z,7.87
2019-05-19T17:17:49.642Z,6.30
2019-05-19T17:20:19.106Z,5.37
2019-05-19T17:22:48.339Z,5.60
2019-05-19T17:25:17.895Z,6.30
2019-05-19T17:27:46.696Z,6.80
2019-05-19T17:30:16.135Z,5.83
2019-05-19T17:32:45.136Z,5.90
2019-05-19T17:35:14.509Z,5.70
2019-05-19T17:37:43.357Z,5.60
2019-05-19T17:40:13.448Z,5.63
2019-05-19T17:42:42.209Z,5.40
2019-05-19T17:45:11.750Z,5.40
2019-05-19T17:47:40.763Z,6.00
2019-05-19T17:50:10.373Z,5.60
2019-05-19T17:52:39.130Z,5.50
2019-05-19T17:55:08.733Z,5.77
2019-05-19T17:57:38.761Z,6.53
2019-05-19T18:00:10.298Z,5.90
2019-05-19T18:02:39.517Z,6.63
2019-05-19T18:05:09.117Z,5.83
2019-05-19T18:07:38.336Z,6.00
2019-05-19T18:10:08.038Z,5.97
2019-05-19T18:12:36.847Z,6.00
2019-05-19T18:15:26.520Z,5.87
2019-05-19T18:17:55.617Z,5.87
2019-05-19T18:20:24.550Z,5.77
2019-05-19T18:22:53.622Z,5.90
2019-05-19T18:25:22.591Z,6.30
2019-05-19T18:27:51.433Z,6.07
2019-05-19T18:30:20.669Z,5.90
2019-05-19T18:32:49.649Z,6.40
2019-05-19T18:35:18.480Z,6.43
2019-05-19T18:37:47.384Z,8.43
2019-05-19T18:40:16.698Z,5.47
2019-05-19T18:42:45.716Z,6.10
2019-05-19T18:45:14.709Z,5.67
2019-05-19T18:47:43.536Z,6.60
2019-05-19T18:50:15.501Z,5.93
2019-05-19T18:52:44.363Z,5.60
2019-05-19T18:55:13.249Z,5.80
2019-05-19T18:57:42.135Z,6.30
2019-05-19T19:00:11.042Z,5.37
2019-05-19T19:02:40.012Z,5.77
2019-05-19T19:05:09.345Z,6.13
2019-05-19T19:07:49.069Z,5.67
2019-05-19T19:10:18.270Z,6.57
2019-05-19T19:12:47.614Z,6.07
2019-05-19T19:15:16.551Z,6.67
2019-05-19T19:17:45.553Z,5.83
2019-05-19T19:20:14.653Z,5.80
2019-05-19T19:22:43.532Z,6.20
2019-05-19T19:25:13.983Z,6.20
2019-05-19T19:27:42.718Z,6.00
2019-05-19T19:30:11.584Z,6.13
2019-05-19T19:32:40.495Z,7.53
2019-05-19T19:35:10.089Z,5.73
2019-05-19T19:37:38.911Z,6.00
2019-05-19T19:40:08.634Z,6.53
2019-05-19T19:42:37.426Z,6.43
2019-05-19T19:45:07.673Z,5.83
2019-05-19T19:47:36.682Z,6.43
2019-05-19T19:50:08.610Z,6.00
2019-05-19T19:52:37.545Z,6.03
2019-05-19T19:55:06.651Z,7.00
2019-05-19T19:57:35.571Z,7.00
2019-05-19T20:00:17.232Z,6.57
2019-05-19T20:02:36.743Z,6.27
2019-05-19T20:05:06.369Z,6.70
2019-05-19T20:07:35.568Z,7.03
2019-05-19T20:10:06.754Z,5.70
2019-05-19T20:12:35.616Z,6.53
2019-05-19T20:15:04.802Z,6.43
2019-05-19T20:17:33.627Z,5.73
2019-05-19T20:20:02.613Z,6.47
2019-05-19T20:22:31.735Z,6.00
2019-05-19T20:25:00.920Z,6.47
2019-05-19T20:27:29.751Z,6.77
2019-05-19T20:29:58.664Z,7.23
2019-05-19T20:32:27.583Z,7.10
2019-05-19T20:34:56.419Z,6.50
2019-05-19T20:37:25.396Z,7.67
2019-05-19T20:39:54.300Z,7.03
2019-05-19T20:42:23.033Z,6.67
2019-05-19T20:44:52.135Z,6.47
2019-05-19T20:47:20.945Z,6.27
2019-05-19T20:49:49.745Z,6.83
2019-05-19T20:52:18.800Z,7.57
2019-05-19T20:54:47.538Z,7.50
2019-05-19T20:57:16.395Z,5.80
2019-05-19T20:59:45.538Z,7.40
2019-05-19T21:02:14.336Z,6.63
2019-05-19T21:04:43.225Z,6.87
2019-05-19T21:07:12.240Z,6.40
2019-05-19T21:09:41.119Z,7.00
2019-05-19T21:12:10.005Z,7.40
2019-05-19T21:14:38.909Z,6.77
2019-05-19T21:17:07.706Z,7.27
2019-05-19T21:19:36.468Z,6.57
2019-05-19T21:22:05.331Z,6.60
2019-05-19T21:24:34.118Z,6.40
2019-05-19T21:27:03.009Z,6.73
2019-05-19T21:29:31.956Z,6.93
2019-05-19T21:32:01.399Z,7.43
2019-05-19T21:34:30.434Z,7.50
2019-05-19T21:36:59.524Z,8.23
2019-05-19T21:39:29.054Z,6.67
2019-05-19T21:41:58.000Z,7.40
2019-05-19T21:44:27.217Z,7.53
2019-05-19T21:46:56.043Z,7.13
2019-05-19T21:49:24.856Z,7.40
2019-05-19T21:51:53.923Z,9.13
2019-05-19T21:54:22.734Z,6.57
2019-05-19T21:56:51.499Z,6.27
2019-05-19T21:59:20.450Z,7.43
2019-05-19T22:01:50.837Z,7.60
2019-05-19T22:04:19.661Z,7.30
2019-05-19T22:06:50.160Z,9.40
2019-05-19T22:09:27.273Z,7.13
2019-05-19T22:11:56.308Z,6.93
2019-05-19T22:14:25.151Z,7.47
2019-05-19T22:16:53.954Z,6.63
2019-05-19T22:19:23.050Z,6.63
2019-05-19T22:21:51.813Z,7.40
2019-05-19T22:24:20.554Z,7.13
2019-05-19T22:26:49.571Z,8.67
2019-05-19T22:29:18.326Z,8.97
2019-05-19T22:31:47.077Z,8.40
2019-05-19T22:34:15.999Z,8.67
2019-05-19T22:36:44.768Z,8.07
2019-05-19T22:39:13.583Z,8.17
2019-05-19T22:41:42.654Z,8.77
2019-05-19T22:44:11.461Z,7.00
2019-05-19T22:46:40.223Z,8.30
2019-05-19T22:49:09.260Z,7.33
2019-05-19T22:51:38.021Z,7.87
2019-05-19T22:54:07.023Z,8.00
2019-05-19T22:56:36.005Z,7.67
2019-05-19T22:59:18.580Z,8.47
2019-05-19T23:01:35.244Z,7.20
2019-05-19T23:04:04.311Z,6.93
2019-05-19T23:06:33.267Z,7.90
2019-05-19T23:09:02.031Z,7.13
2019-05-19T23:11:31.274Z,7.87
2019-05-19T23:14:00.531Z,7.37
2019-05-19T23:16:29.309Z,7.03
2019-05-19T23:18:58.446Z,7.83
2019-05-19T23:21:27.449Z,8.70
2019-05-19T23:23:56.313Z,6.30
2019-05-19T23:26:25.176Z,7.77
2019-05-19T23:28:54.052Z,7.70
2019-05-19T23:31:22.728Z,9.27
2019-05-19T23:33:51.711Z,7.80
2019-05-19T23:36:20.458Z,7.93
2019-05-19T23:38:49.838Z,7.73
2019-05-19T23:41:18.690Z,7.53
2019-05-19T23:43:47.684Z,7.50
2019-05-19T23:46:16.536Z,7.17
2019-05-19T23:48:45.539Z,7.97
2019-05-19T23:51:14.367Z,8.20
2019-05-19T23:53:43.204Z,7.37
2019-05-19T23:56:12.347Z,8.13
2019-05-19T23:58:41.277Z,7.60
